Time;durP1;ratioP1;P1;durP2;ratioP2;P2;SDS_P1;SDS_P2;PMS_P1;PMS_P2;Temp;Humidity;BMP_temperature;BMP_pressure;BME280_temperature;BME280_humidity;BME280_pressure;Samples;Min_cycle;Max_cycle;Signal;HPM_P1;HPM_P2
2023/06/12 00:01:24;;;;;;;;;13.50;12.50;;;;;24.29;30.46;101499.02;112137;1248;20123;-39
2023/06/12 00:03:51;;;;;;;;;10.00;10.00;;;;;24.28;30.42;101499.98;112261;1263;21414;-39
2023/06/12 00:06:18;;;;;;;;;13.50;12.00;;;;;24.28;30.25;101496.58;112129;1263;20680;-39
2023/06/12 00:08:46;;;;;;;;;10.00;10.00;;;;;24.28;30.29;101501.33;112252;1249;19920;-40
2023/06/12 00:11:13;;;;;;;;;12.00;12.00;;;;;24.28;30.36;101497.70;112194;1263;18668;-39
2023/06/12 00:13:41;;;;;;;;;13.00;11.00;;;;;24.28;30.24;101503.52;112280;1263;19404;-39
2023/06/12 00:16:08;;;;;;;;;15.50;14.50;;;;;24.27;30.21;101503.60;112148;1263;20291;-39
2023/06/12 00:18:38;;;;;;;;;10.67;10.00;;;;;24.27;30.28;101501.63;112285;1247;18686;-39
2023/06/12 00:21:05;;;;;;;;;11.00;10.00;;;;;24.26;30.30;101501.65;112156;1263;19203;-38
2023/06/12 00:23:32;;;;;;;;;12.00;12.00;;;;;24.26;30.37;101501.14;112142;1263;18802;-38
2023/06/12 00:26:00;;;;;;;;;12.50;12.00;;;;;24.25;30.36;101499.02;112083;1247;18958;-38
2023/06/12 00:28:27;;;;;;;;;11.33;9.67;;;;;24.24;30.25;101500.55;112172;1263;19465;-39
2023/06/12 00:30:55;;;;;;;;;12.00;10.00;;;;;24.25;30.35;101496.69;112066;1247;20241;-39
2023/06/12 00:33:22;;;;;;;;;13.00;11.00;;;;;24.25;30.35;101492.86;112191;1248;20084;-38
2023/06/12 00:35:50;;;;;;;;;9.67;9.67;;;;;24.24;30.31;101497.64;112063;1247;22182;-39
2023/06/12 00:38:17;;;;;;;;;10.00;10.00;;;;;24.23;30.34;101499.98;112194;1263;21057;-38
2023/06/12 00:40:44;;;;;;;;;17.00;16.00;;;;;24.22;30.15;101496.64;112093;1248;18679;-38
2023/06/12 00:43:12;;;;;;;;;13.00;12.00;;;;;24.22;30.28;101499.34;112234;1248;20880;-37
2023/06/12 00:45:40;;;;;;;;;16.00;13.00;;;;;24.23;30.32;101503.27;112087;1263;18798;-38
2023/06/12 00:48:07;;;;;;;;;15.00;13.00;;;;;24.22;30.41;101502.63;112198;1263;20067;-39
2023/06/12 00:50:34;;;;;;;;;15.00;13.00;;;;;24.23;30.38;101500.77;112072;1263;19346;-38
2023/06/12 00:53:02;;;;;;;;;18.00;16.00;;;;;24.22;30.34;101500.52;112204;1248;19976;-39
2023/06/12 00:55:29;;;;;;;;;13.00;13.00;;;;;24.22;30.22;101505.65;111976;1263;165705;-39
2023/06/12 00:57:57;;;;;;;;;13.50;13.00;;;;;24.20;30.17;101508.92;112221;1256;20804;-39
2023/06/12 01:00:25;;;;;;;;;13.00;12.00;;;;;24.19;30.35;101508.55;112092;1247;19981;-39
2023/06/12 01:02:52;;;;;;;;;11.00;11.00;;;;;24.18;30.14;101506.28;112191;1263;20392;-39
2023/06/12 01:05:20;;;;;;;;;13.00;12.00;;;;;24.17;30.13;101505.27;112249;1247;19360;-39
2023/06/12 01:07:48;;;;;;;;;11.00;10.00;;;;;24.18;30.33;101505.95;112101;1263;20144;-39
2023/06/12 01:10:16;;;;;;;;;10.00;10.00;;;;;24.18;30.09;101509.16;112260;1263;20365;-39
2023/06/12 01:12:43;;;;;;;;;9.00;8.00;;;;;24.17;30.09;101506.39;112125;1263;20663;-39
2023/06/12 01:15:11;;;;;;;;;12.00;10.00;;;;;24.16;30.11;101502.35;112271;1263;18546;-39
2023/06/12 01:17:41;;;;;;;;;10.00;9.00;;;;;24.16;30.16;101503.64;112131;1263;20028;-38
2023/06/12 01:20:10;;;;;;;;;8.00;6.00;;;;;24.15;30.19;101505.02;112150;1255;20653;-39
2023/06/12 01:22:38;;;;;;;;;10.00;9.00;;;;;24.15;30.11;101505.57;112155;1263;21212;-39
2023/06/12 01:25:05;;;;;;;;;8.00;8.00;;;;;24.14;29.99;101504.71;112229;1263;20350;-39
2023/06/12 01:27:33;;;;;;;;;12.00;12.00;;;;;24.14;30.13;101504.17;112155;1263;20882;-39
2023/06/12 01:30:00;;;;;;;;;9.00;8.00;;;;;24.15;30.11;101503.73;112259;1263;18498;-39
2023/06/12 01:32:30;;;;;;;;;10.00;9.00;;;;;24.15;30.13;101505.98;112145;1255;18595;-39
2023/06/12 01:34:57;;;;;;;;;8.00;6.00;;;;;24.14;30.12;101504.73;112202;1263;19573;-39
2023/06/12 01:37:25;;;;;;;;;9.00;8.50;;;;;24.13;30.01;101503.96;112078;1248;20009;-39
2023/06/12 01:39:52;;;;;;;;;9.00;9.00;;;;;24.12;30.07;101506.29;112181;1247;19932;-39
2023/06/12 01:42:20;;;;;;;;;9.50;9.50;;;;;24.12;29.96;101506.80;112077;1248;21005;-40
2023/06/12 01:44:47;;;;;;;;;9.00;9.00;;;;;24.13;29.89;101506.95;112209;1247;19735;-39
2023/06/12 01:47:14;;;;;;;;;9.50;9.50;;;;;24.13;30.05;101506.57;112107;1263;18655;-40
2023/06/12 01:49:42;;;;;;;;;10.00;10.00;;;;;24.13;29.92;101505.61;112194;1263;20630;-39
2023/06/12 01:52:09;;;;;;;;;8.00;8.00;;;;;24.13;29.93;101502.45;112127;1263;19787;-40
2023/06/12 01:54:37;;;;;;;;;8.00;7.00;;;;;24.14;29.84;101506.10;112231;1263;18850;-39
2023/06/12 01:57:05;;;;;;;;;8.33;8.33;;;;;24.12;29.92;101502.73;112087;1263;20720;-39
2023/06/12 01:59:34;;;;;;;;;9.50;9.50;;;;;24.12;30.02;101503.48;112179;1247;18383;-40
2023/06/12 02:02:01;;;;;;;;;8.50;7.00;;;;;24.13;29.81;101499.02;112233;1247;20350;-39
2023/06/12 02:04:29;;;;;;;;;10.00;8.67;;;;;24.12;29.93;101498.41;112163;1263;19364;-39
2023/06/12 02:06:56;;;;;;;;;10.00;8.00;;;;;24.12;30.05;101502.41;112286;1247;19581;-39
2023/06/12 02:09:24;;;;;;;;;8.50;8.50;;;;;24.12;29.87;101505.71;112168;1263;20412;-39
2023/06/12 02:11:51;;;;;;;;;9.33;8.33;;;;;24.12;29.82;101503.33;112255;1263;21823;-39
2023/06/12 02:14:18;;;;;;;;;10.50;9.00;;;;;24.11;30.00;101508.59;112162;1247;19643;-39
2023/06/12 02:16:47;;;;;;;;;10.50;9.00;;;;;24.10;29.92;101508.91;112260;1263;18703;-39
2023/06/12 02:19:15;;;;;;;;;12.00;10.00;;;;;24.06;30.03;101504.93;112047;1251;21117;-39
2023/06/12 02:21:42;;;;;;;;;11.00;10.00;;;;;24.04;30.31;101502.27;112183;1263;18579;-39
2023/06/12 02:24:10;;;;;;;;;9.00;9.00;;;;;24.04;30.52;101506.45;112092;1247;19005;-40
2023/06/12 02:26:37;;;;;;;;;13.00;12.00;;;;;24.04;30.54;101509.27;112180;1263;19933;-39
2023/06/12 02:29:05;;;;;;;;;10.00;9.00;;;;;24.04;30.47;101504.13;112093;1255;19517;-40
2023/06/12 02:31:32;;;;;;;;;13.00;12.00;;;;;24.03;30.62;101500.36;112175;1263;20082;-40
2023/06/12 02:33:59;;;;;;;;;13.33;12.00;;;;;24.04;30.56;101504.80;112085;1263;19699;-39
2023/06/12 02:36:27;;;;;;;;;16.33;16.00;;;;;24.05;30.73;101507.34;112204;1263;19922;-40
2023/06/12 02:38:55;;;;;;;;;10.00;9.67;;;;;24.06;30.64;101509.41;112063;1263;21292;-40
2023/06/12 02:41:23;;;;;;;;;12.50;12.00;;;;;24.05;30.68;101510.71;112157;1247;20984;-40
2023/06/12 02:43:50;;;;;;;;;15.00;13.50;;;;;24.05;30.81;101509.45;112119;1263;18556;-40
2023/06/12 02:46:18;;;;;;;;;12.33;11.33;;;;;24.05;30.68;101510.75;112170;1263;20083;-40
2023/06/12 02:48:45;;;;;;;;;13.50;12.50;;;;;24.05;30.63;101511.38;112229;1248;21004;-40
2023/06/12 02:51:13;;;;;;;;;15.00;12.50;;;;;24.05;30.67;101510.04;112138;1263;19994;-40
2023/06/12 02:53:40;;;;;;;;;16.50;16.00;;;;;24.04;30.70;101510.83;112140;1263;20052;-42
2023/06/12 02:56:07;;;;;;;;;12.33;12.33;;;;;24.04;30.57;101511.63;112200;1263;19487;-41
2023/06/12 02:58:35;;;;;;;;;14.50;13.50;;;;;24.04;30.53;101516.73;112077;1263;18556;-40
2023/06/12 03:01:04;;;;;;;;;13.00;13.00;;;;;24.04;30.51;101513.81;112208;1247;20213;-40
2023/06/12 03:03:31;;;;;;;;;13.50;12.50;;;;;24.03;30.51;101517.76;112235;1263;22123;-40
2023/06/12 03:05:58;;;;;;;;;14.00;14.00;;;;;24.03;30.52;101522.27;112182;1263;18555;-40
2023/06/12 03:08:26;;;;;;;;;14.50;13.50;;;;;24.04;30.49;101527.30;112278;1263;18926;-40
2023/06/12 03:10:53;;;;;;;;;15.00;14.00;;;;;24.04;30.55;101524.80;112160;1247;20645;-39
2023/06/12 03:13:21;;;;;;;;;14.50;10.00;;;;;24.04;30.49;101524.63;112274;1263;19930;-40
2023/06/12 03:15:49;;;;;;;;;14.00;14.00;;;;;24.02;30.31;101527.17;112133;1247;21226;-40
2023/06/12 03:18:16;;;;;;;;;9.00;9.00;;;;;24.02;30.34;101532.45;112251;1247;20640;-40
2023/06/12 03:20:44;;;;;;;;;11.00;11.00;;;;;24.02;30.21;101528.83;112144;1247;20307;-40
2023/06/12 03:23:11;;;;;;;;;9.00;9.00;;;;;24.02;30.31;101530.33;112245;1263;18764;-40
2023/06/12 03:25:39;;;;;;;;;10.00;10.00;;;;;24.02;30.38;101534.27;112154;1263;20906;-40
2023/06/12 03:28:06;;;;;;;;;10.00;10.00;;;;;24.03;30.27;101530.42;112261;1247;18138;-41
2023/06/12 03:30:34;;;;;;;;;12.50;9.50;;;;;24.02;30.20;101530.88;112160;1247;20043;-40
2023/06/12 03:33:02;;;;;;;;;10.00;10.00;;;;;24.01;30.23;101534.24;112230;1263;21843;-41
2023/06/12 03:35:30;;;;;;;;;9.00;8.00;;;;;23.99;30.12;101528.42;112060;1263;18876;-40
2023/06/12 03:37:57;;;;;;;;;9.67;9.00;;;;;24.01;30.08;101528.27;112191;1263;18628;-40
2023/06/12 03:40:25;;;;;;;;;9.00;9.00;;;;;24.00;30.14;101529.06;112096;1263;20912;-39
2023/06/12 03:42:52;;;;;;;;;10.00;9.00;;;;;23.98;30.20;101532.33;112167;1263;19907;-40
2023/06/12 03:45:20;;;;;;;;;8.00;8.00;;;;;23.98;30.00;101532.32;112076;1263;18668;-40
2023/06/12 03:47:47;;;;;;;;;10.00;10.00;;;;;23.99;30.13;101535.50;112204;1247;19478;-40
2023/06/12 03:50:16;;;;;;;;;15.00;13.00;;;;;23.98;30.13;101537.70;112092;1247;18457;-40
2023/06/12 03:52:44;;;;;;;;;11.00;10.00;;;;;23.94;30.03;101537.44;112176;1247;21508;-41
2023/06/12 03:55:12;;;;;;;;;10.50;9.50;;;;;23.92;29.89;101535.81;112331;1263;19675;-40
2023/06/12 03:57:39;;;;;;;;;15.33;10.00;;;;;23.91;29.89;101538.73;112199;1250;20088;-40
2023/06/12 04:00:08;;;;;;;;;9.50;9.50;;;;;23.90;29.80;101537.73;112256;1247;20415;-40
2023/06/12 04:02:36;;;;;;;;;6.00;6.00;;;;;23.89;29.85;101540.60;112202;1263;19423;-40
2023/06/12 04:05:04;;;;;;;;;8.00;8.00;;;;;23.84;29.74;101539.17;112173;1263;19576;-39
2023/06/12 04:07:31;;;;;;;;;12.00;9.00;;;;;23.84;29.84;101540.39;112232;1263;19965;-40
2023/06/12 04:09:59;;;;;;;;;12.00;10.00;;;;;23.85;29.80;101541.61;112149;1247;19480;-40
2023/06/12 04:12:26;;;;;;;;;8.50;8.50;;;;;23.83;29.83;101540.35;112267;1263;18599;-39
2023/06/12 04:14:53;;;;;;;;;8.00;8.00;;;;;23.83;29.68;101539.46;112153;1247;19922;-40
2023/06/12 04:17:21;;;;;;;;;9.67;9.67;;;;;23.76;29.91;101539.89;112286;1263;19375;-39
2023/06/12 04:19:49;;;;;;;;;9.00;9.00;;;;;23.79;29.84;101538.31;112169;1247;20919;-40
2023/06/12 04:22:16;;;;;;;;;10.33;10.00;;;;;23.77;29.92;101538.57;112242;1263;18608;-40
2023/06/12 04:24:45;;;;;;;;;9.00;9.00;;;;;23.69;29.73;101538.11;112189;1247;20770;-40
2023/06/12 04:27:13;;;;;;;;;8.00;8.00;;;;;23.67;30.00;101537.23;112234;1247;20032;-40
2023/06/12 04:29:42;;;;;;;;;9.00;8.50;;;;;23.62;29.98;101538.36;112283;1263;19782;-39
2023/06/12 04:32:13;;;;;;;;;8.00;8.00;;;;;23.64;30.03;101543.39;112096;1263;19362;-40
2023/06/12 04:34:41;;;;;;;;;9.00;8.00;;;;;23.61;30.02;101540.39;112153;1248;20795;-40
2023/06/12 04:37:09;;;;;;;;;11.50;9.00;;;;;23.60;30.03;101540.95;112133;1263;20451;-40
2023/06/12 04:39:36;;;;;;;;;8.00;8.00;;;;;23.55;30.20;101545.08;112230;1247;20928;-40
2023/06/12 04:42:05;;;;;;;;;8.00;8.00;;;;;23.54;30.10;101548.94;112149;1247;18952;-40
2023/06/12 04:44:34;;;;;;;;;11.50;9.00;;;;;23.52;30.31;101551.05;112153;1263;18992;-40
2023/06/12 04:47:04;;;;;;;;;11.00;11.00;;;;;23.49;30.35;101557.06;112236;1247;20639;-39
2023/06/12 04:49:33;;;;;;;;;9.00;9.00;;;;;23.50;30.52;101555.21;112200;1256;20565;-40
2023/06/12 04:52:02;;;;;;;;;8.33;8.00;;;;;23.56;30.24;101556.19;112281;1263;18579;-39
2023/06/12 04:54:35;;;;;;;;;11.00;8.00;;;;;23.61;30.25;101555.05;112064;1247;21113;-38
2023/06/12 04:57:02;;;;;;;;;13.00;12.50;;;;;23.56;30.25;101555.80;112201;1263;18452;-38
2023/06/12 04:59:30;;;;;;;;;12.00;12.00;;;;;22.67;30.82;101559.31;112110;1255;20238;-39
2023/06/12 05:01:58;;;;;;;;;12.00;11.00;;;;;21.93;32.01;101564.64;112145;1251;20805;-39
2023/06/12 05:04:25;;;;;;;;;12.67;11.33;;;;;22.01;32.16;101562.66;112154;1247;19982;-39
2023/06/12 05:06:54;;;;;;;;;12.00;12.00;;;;;21.89;32.36;101560.35;112134;1263;20372;-39
2023/06/12 05:09:22;;;;;;;;;12.00;12.00;;;;;21.86;32.62;101556.05;112208;1263;20655;-39
2023/06/12 05:11:49;;;;;;;;;11.67;11.67;;;;;22.09;32.41;101559.05;112122;1247;20013;-39
2023/06/12 05:14:16;;;;;;;;;11.00;11.00;;;;;22.00;32.73;101558.45;112224;1247;20269;-39
2023/06/12 05:16:46;;;;;;;;;13.00;13.00;;;;;21.97;32.58;101561.25;112156;1263;20929;-39
2023/06/12 05:19:14;;;;;;;;;13.33;11.00;;;;;21.84;32.93;101559.39;112147;1257;19953;-39
2023/06/12 05:21:43;;;;;;;;;13.50;13.00;;;;;21.74;33.08;101562.13;112234;1249;21488;-39
2023/06/12 05:24:10;;;;;;;;;11.00;11.00;;;;;21.88;33.09;101559.21;112160;1263;21062;-39
2023/06/12 05:26:38;;;;;;;;;12.33;11.00;;;;;21.98;32.72;101557.53;112157;1247;20039;-40
2023/06/12 05:29:05;;;;;;;;;13.00;11.00;;;;;22.27;32.79;101558.63;112129;1263;18996;-40
2023/06/12 05:31:33;;;;;;;;;13.00;11.00;;;;;22.47;32.74;101556.38;112181;1248;20944;-39
2023/06/12 05:34:00;;;;;;;;;11.00;11.00;;;;;22.57;32.72;101556.56;112101;1249;20417;-40
2023/06/12 05:36:27;;;;;;;;;10.50;10.00;;;;;22.60;32.32;101551.66;112194;1263;18664;-40
2023/06/12 05:38:55;;;;;;;;;11.00;11.00;;;;;22.71;32.44;101551.18;112158;1249;20718;-40
2023/06/12 05:41:22;;;;;;;;;10.50;9.00;;;;;22.80;32.29;101551.83;112152;1263;19673;-40
2023/06/12 05:43:50;;;;;;;;;13.00;11.50;;;;;22.76;32.51;101550.73;112046;1263;20272;-41
2023/06/12 05:46:17;;;;;;;;;12.00;12.00;;;;;22.76;32.65;101550.54;112209;1256;19532;-40
2023/06/12 05:48:45;;;;;;;;;11.00;11.00;;;;;22.77;32.78;101547.83;112073;1249;19996;-40
2023/06/12 05:51:12;;;;;;;;;9.50;8.50;;;;;22.84;32.56;101546.36;112187;1263;20516;-40
2023/06/12 05:53:44;;;;;;;;;9.50;9.00;;;;;22.83;32.72;101551.21;112067;1263;19794;-41
2023/06/12 05:56:12;;;;;;;;;9.00;9.00;;;;;22.97;32.89;101543.55;112247;1263;20019;-40
2023/06/12 05:58:40;;;;;;;;;9.67;9.67;;;;;23.19;32.84;101542.38;112097;1247;20019;-41
2023/06/12 06:01:11;;;;;;;;;11.00;9.00;;;;;23.33;32.63;101543.73;112122;1263;21970;-40
2023/06/12 06:03:42;;;;;;;;;11.00;11.00;;;;;23.42;32.50;101541.89;112138;1256;18173;-40
2023/06/12 06:06:09;;;;;;;;;9.00;9.00;;;;;23.23;32.23;101541.15;112074;1263;21356;-41
2023/06/12 06:08:38;;;;;;;;;12.00;12.00;;;;;22.97;32.53;101546.14;112208;1263;20731;-40
2023/06/12 06:11:05;;;;;;;;;11.00;11.00;;;;;23.05;32.48;101543.82;112157;1263;19593;-40
2023/06/12 06:13:33;;;;;;;;;14.00;12.00;;;;;23.12;32.51;101546.98;112146;1263;18907;-39
2023/06/12 06:16:01;;;;;;;;;10.33;9.33;;;;;23.11;32.63;101546.77;112121;1247;19454;-39
2023/06/12 06:18:29;;;;;;;;;12.00;11.00;;;;;23.13;32.45;101544.15;112103;1263;18580;-40
2023/06/12 06:20:57;;;;;;;;;11.00;11.00;;;;;23.12;32.31;101542.44;112222;1263;18648;-39
2023/06/12 06:23:25;;;;;;;;;11.50;11.00;;;;;23.10;32.39;101544.90;112130;1249;20766;-40
2023/06/12 06:25:52;;;;;;;;;11.00;11.00;;;;;23.17;32.15;101544.11;112164;1247;20016;-40
2023/06/12 06:28:20;;;;;;;;;9.00;9.00;;;;;23.22;32.32;101543.30;112059;1247;20036;-41
2023/06/12 06:30:47;;;;;;;;;8.00;8.00;;;;;23.27;32.22;101546.45;112184;1248;20896;-40
2023/06/12 06:33:15;;;;;;;;;8.00;8.00;;;;;23.12;32.21;101550.09;112076;1263;19570;-40
2023/06/12 06:35:43;;;;;;;;;9.00;8.00;;;;;23.11;31.97;101548.42;112194;1263;18824;-39
2023/06/12 06:38:11;;;;;;;;;8.00;8.00;;;;;23.15;31.74;101552.66;112300;1251;21128;-39
2023/06/12 06:40:38;;;;;;;;;9.50;8.50;;;;;23.31;32.01;101552.28;112178;1263;19912;-40
2023/06/12 06:43:06;;;;;;;;;9.00;9.00;;;;;23.63;32.98;101550.87;112265;1248;20381;-39
2023/06/12 06:45:33;;;;;;;;;9.00;8.00;;;;;23.82;33.24;101552.56;112190;1263;19307;-40
2023/06/12 06:48:01;;;;;;;;;8.00;8.00;;;;;23.94;33.24;101552.95;112246;1263;19588;-39
2023/06/12 06:50:28;;;;;;;;;9.00;8.00;;;;;24.05;33.26;101552.96;112188;1263;19927;-39
2023/06/12 06:52:56;;;;;;;;;6.00;6.00;;;;;24.10;33.45;101556.91;112301;1253;19478;-40
2023/06/12 06:55:23;;;;;;;;;6.00;6.00;;;;;24.15;33.72;101555.79;112151;1263;18355;-40
2023/06/12 06:57:54;;;;;;;;;9.00;8.50;;;;;24.18;33.70;101554.67;112301;1263;18706;-40
2023/06/12 07:00:22;;;;;;;;;6.00;6.00;;;;;24.20;33.45;101551.30;112200;1263;19316;-40
2023/06/12 07:02:50;;;;;;;;;9.00;8.33;;;;;24.25;33.56;101551.14;112062;1263;18180;-39
2023/06/12 07:05:18;;;;;;;;;8.33;6.67;;;;;24.28;33.32;101545.34;112143;1263;20104;-39
2023/06/12 07:07:46;;;;;;;;;7.50;7.50;;;;;24.30;33.17;101549.98;112224;1247;22137;-40
2023/06/12 07:10:13;;;;;;;;;9.00;7.67;;;;;24.33;33.31;101548.40;112160;1256;19559;-38
2023/06/12 07:12:40;;;;;;;;;5.67;5.67;;;;;24.36;32.96;101549.19;112268;1263;18596;-38
2023/06/12 07:15:08;;;;;;;;;12.00;8.00;;;;;24.36;32.88;101544.45;112132;1248;21156;-38
2023/06/12 07:17:35;;;;;;;;;8.50;7.00;;;;;24.36;32.62;101545.69;112256;1263;18776;-39
2023/06/12 07:20:05;;;;;;;;;9.50;7.50;;;;;24.18;31.05;101543.04;112120;1263;18906;-39
2023/06/12 07:22:32;;;;;;;;;9.00;8.00;;;;;24.03;30.21;101543.67;112202;1247;20934;-38
2023/06/12 07:25:00;;;;;;;;;6.00;6.00;;;;;23.93;29.19;101538.61;112109;1263;18675;-40
2023/06/12 07:27:27;;;;;;;;;8.00;8.00;;;;;23.97;28.59;101540.52;112206;1263;18673;-38
2023/06/12 07:29:55;;;;;;;;;6.00;6.00;;;;;24.01;28.23;101539.70;112091;1263;21043;-38
2023/06/12 07:32:22;;;;;;;;;6.00;6.00;;;;;24.05;28.41;101545.78;112187;1263;19889;-38
2023/06/12 07:34:51;;;;;;;;;8.50;8.00;;;;;24.13;28.33;101536.80;112060;1247;18639;-40
2023/06/12 07:37:20;;;;;;;;;8.00;6.00;;;;;24.16;27.83;101538.33;112116;1263;20718;-39
2023/06/12 07:39:48;;;;;;;;;6.00;6.00;;;;;24.13;27.50;101539.98;112151;1247;19672;-39
2023/06/12 07:42:15;;;;;;;;;6.00;6.00;;;;;24.09;27.31;101537.14;112222;1263;20129;-39
2023/06/12 07:44:43;;;;;;;;;8.00;8.00;;;;;24.01;26.99;101535.29;112122;1263;19270;-38
2023/06/12 07:47:11;;;;;;;;;8.00;6.00;;;;;24.02;27.15;101533.33;112258;1248;20665;-38
2023/06/12 07:49:38;;;;;;;;;6.00;6.00;;;;;24.06;26.69;101536.77;112127;1247;20409;-39
2023/06/12 07:52:05;;;;;;;;;5.00;5.00;;;;;23.98;26.41;101540.41;112252;1247;22464;-38
2023/06/12 07:54:33;;;;;;;;;6.00;5.00;;;;;23.96;26.64;101535.23;112142;1254;20824;-39
2023/06/12 07:57:00;;;;;;;;;6.00;5.00;;;;;24.12;27.16;101534.75;112300;1263;20270;-38
2023/06/12 07:59:28;;;;;;;;;4.00;4.00;;;;;24.23;27.25;101524.65;112162;1263;20693;-38
2023/06/12 08:01:57;;;;;;;;;5.00;5.00;;;;;24.33;27.31;101529.44;112278;1251;19633;-37
2023/06/12 08:04:24;;;;;;;;;36.00;34.00;;;;;24.38;27.86;101532.98;112111;1263;18928;-37
2023/06/12 08:06:54;;;;;;;;;40.00;35.00;;;;;24.44;28.18;101527.94;112250;1248;20754;-40
2023/06/12 08:09:21;;;;;;;;;32.00;27.33;;;;;24.46;28.28;101522.58;112248;1263;18933;-40
2023/06/12 08:11:49;;;;;;;;;90.00;69.00;;;;;24.46;28.42;101520.85;112125;1263;19897;-41
2023/06/12 08:14:17;;;;;;;;;48.50;42.00;;;;;24.50;28.35;101521.83;112238;1257;20834;-41
2023/06/12 08:16:45;;;;;;;;;27.67;24.67;;;;;24.51;28.14;101520.10;112087;1263;18637;-42
2023/06/12 08:19:12;;;;;;;;;20.00;14.00;;;;;24.51;27.87;101517.18;112164;1263;18874;-39
2023/06/12 08:21:40;;;;;;;;;9.00;9.00;;;;;24.34;26.90;101524.67;112062;1254;21060;-40
2023/06/12 08:24:09;;;;;;;;;9.00;8.00;;;;;24.13;26.34;101515.26;112165;1263;18757;-41
2023/06/12 08:26:36;;;;;;;;;9.00;9.00;;;;;24.18;26.26;101507.73;112256;1263;18594;-38
2023/06/12 08:29:04;;;;;;;;;8.50;8.50;;;;;24.26;26.35;101505.86;112180;1263;19799;-39
2023/06/12 08:31:33;;;;;;;;;8.00;8.00;;;;;24.34;26.37;101505.00;112217;1263;18178;-40
2023/06/12 08:34:00;;;;;;;;;9.33;8.67;;;;;24.38;26.42;101509.41;112169;1263;18948;-40
2023/06/12 08:36:28;;;;;;;;;7.00;7.00;;;;;24.46;26.76;101505.48;112144;1263;20717;-39
2023/06/12 08:38:55;;;;;;;;;10.00;9.00;;;;;24.54;26.82;101505.39;112185;1247;19826;-39
2023/06/12 08:41:23;;;;;;;;;9.50;9.50;;;;;24.61;27.01;101500.69;112152;1263;20003;-39
2023/06/12 08:43:50;;;;;;;;;8.50;8.50;;;;;24.63;26.59;101503.56;112157;1263;19339;-40
2023/06/12 08:46:18;;;;;;;;;6.00;6.00;;;;;24.22;25.69;101513.46;112152;1263;19130;-38
2023/06/12 08:48:45;;;;;;;;;8.00;6.00;;;;;24.07;25.68;101505.24;112166;1248;20024;-39
2023/06/12 08:51:13;;;;;;;;;6.00;6.00;;;;;24.20;26.00;101497.41;112132;1248;20763;-39
2023/06/12 08:53:40;;;;;;;;;6.00;6.00;;;;;24.35;25.73;101498.86;112155;1250;19798;-40
2023/06/12 08:56:08;;;;;;;;;7.67;7.33;;;;;24.27;25.57;101501.80;112118;1263;18956;-41
2023/06/12 08:58:35;;;;;;;;;6.00;6.00;;;;;24.01;25.29;101495.30;112311;1247;20452;-38
2023/06/12 09:01:04;;;;;;;;;8.00;6.67;;;;;23.99;25.22;101492.48;112121;1263;18642;-38
2023/06/12 09:03:31;;;;;;;;;6.00;6.00;;;;;24.05;25.59;101489.23;112254;1248;20144;-38
2023/06/12 09:05:59;;;;;;;;;6.00;6.00;;;;;24.17;25.77;101486.01;112141;1263;19633;-39
2023/06/12 09:08:26;;;;;;;;;6.00;6.00;;;;;24.26;25.82;101487.11;112254;1247;19713;-40
2023/06/12 09:10:54;;;;;;;;;8.00;7.00;;;;;24.33;26.09;101485.00;112091;1263;18623;-39
2023/06/12 09:13:21;;;;;;;;;5.50;5.50;;;;;24.42;26.05;101489.65;112239;1263;19508;-39
2023/06/12 09:15:49;;;;;;;;;8.00;6.00;;;;;24.48;26.12;101480.97;112118;1263;19872;-39
2023/06/12 09:18:16;;;;;;;;;6.00;6.00;;;;;24.57;26.28;101483.94;112221;1249;20065;-39
2023/06/12 09:20:44;;;;;;;;;5.33;5.33;;;;;24.50;26.17;101486.64;112071;1263;19523;-40
2023/06/12 09:23:12;;;;;;;;;6.00;6.00;;;;;24.49;26.21;101483.98;112195;1248;21259;-40
2023/06/12 09:25:40;;;;;;;;;6.00;5.00;;;;;24.46;26.13;101484.17;112073;1255;20048;-40
2023/06/12 09:28:09;;;;;;;;;8.00;8.00;;;;;24.47;26.49;101480.94;112158;1247;20787;-39
2023/06/12 09:30:36;;;;;;;;;5.50;5.50;;;;;24.71;26.38;101478.09;112243;1263;20795;-40
2023/06/12 09:33:05;;;;;;;;;8.00;5.50;;;;;24.64;26.43;101479.12;112144;1263;20117;-40
2023/06/12 09:35:33;;;;;;;;;8.00;6.67;;;;;24.63;26.42;101480.49;112144;1263;20723;-41
2023/06/12 09:38:00;;;;;;;;;8.00;8.00;;;;;24.62;25.90;101480.02;112049;1263;20985;-40
2023/06/12 09:40:27;;;;;;;;;8.50;8.00;;;;;24.59;25.51;101471.36;112174;1247;18627;-40
2023/06/12 09:42:55;;;;;;;;;6.00;6.00;;;;;24.57;25.19;101468.66;112065;1263;20673;-39
2023/06/12 09:45:23;;;;;;;;;8.00;8.00;;;;;24.36;25.09;101471.49;112196;1263;19894;-39
2023/06/12 09:47:50;;;;;;;;;6.00;6.00;;;;;24.47;25.34;101463.98;112154;1263;20271;-39
2023/06/12 09:50:18;;;;;;;;;8.00;6.00;;;;;24.49;25.59;101464.08;112146;1263;20714;-38
2023/06/12 09:52:45;;;;;;;;;9.33;6.00;;;;;24.59;25.64;101456.61;112095;1263;20856;-39
2023/06/12 09:55:13;;;;;;;;;7.00;6.00;;;;;24.69;25.57;101458.58;112159;1263;21153;-38
2023/06/12 09:57:41;;;;;;;;;8.00;8.00;;;;;24.72;25.42;101455.08;112111;1263;20716;-38
2023/06/12 10:00:11;;;;;;;;;9.00;8.00;;;;;24.62;25.34;101451.97;112136;1263;18142;-39
2023/06/12 10:02:39;;;;;;;;;8.00;8.00;;;;;24.55;25.21;101447.34;112143;1247;19966;-39
2023/06/12 10:05:06;;;;;;;;;8.00;8.00;;;;;24.73;25.27;101443.67;112271;1247;20798;-39
2023/06/12 10:07:34;;;;;;;;;9.00;8.00;;;;;24.72;25.41;101438.18;112146;1250;19583;-39
2023/06/12 10:10:02;;;;;;;;;7.00;6.00;;;;;24.66;25.71;101435.92;112224;1263;20957;-39
2023/06/12 10:12:29;;;;;;;;;6.00;6.00;;;;;24.68;25.91;101435.39;112045;1247;21958;-39
2023/06/12 10:14:57;;;;;;;;;10.00;10.00;;;;;24.80;25.66;101433.63;112219;1247;19654;-40
2023/06/12 10:17:24;;;;;;;;;14.00;14.00;;;;;24.79;25.86;101436.66;112107;1247;20209;-39
2023/06/12 10:19:52;;;;;;;;;11.00;11.00;;;;;24.87;25.90;101437.73;112208;1263;21149;-39
2023/06/12 10:22:19;;;;;;;;;13.00;10.00;;;;;24.76;25.79;101435.29;112099;1263;18539;-39
2023/06/12 10:24:47;;;;;;;;;12.00;9.00;;;;;24.67;25.95;101432.82;112200;1247;20456;-39
2023/06/12 10:27:15;;;;;;;;;11.33;11.33;;;;;24.80;26.09;101432.02;112093;1263;19323;-39
2023/06/12 10:29:42;;;;;;;;;9.00;9.00;;;;;24.89;26.10;101423.55;112188;1247;20391;-40
2023/06/12 10:32:10;;;;;;;;;14.00;10.00;;;;;24.87;25.91;101416.85;112019;1263;19940;-39
2023/06/12 10:34:37;;;;;;;;;9.00;8.00;;;;;24.75;25.80;101424.23;112160;1263;19580;-39
2023/06/12 10:37:05;;;;;;;;;8.50;8.00;;;;;24.50;24.99;101427.27;112065;1263;18580;-40
2023/06/12 10:39:32;;;;;;;;;8.00;8.00;;;;;24.43;24.94;101417.52;112200;1263;18797;-39
2023/06/12 10:42:00;;;;;;;;;8.00;6.00;;;;;24.54;24.90;101414.52;112143;1263;19328;-39
2023/06/12 10:44:27;;;;;;;;;9.67;9.00;;;;;24.42;24.62;101415.21;112163;1247;19851;-39
2023/06/12 10:46:55;;;;;;;;;8.00;6.00;;;;;24.28;24.45;101418.88;112056;1247;19067;-39
2023/06/12 10:49:22;;;;;;;;;8.00;8.00;;;;;24.20;24.64;101412.91;112171;1247;20739;-38
2023/06/12 10:51:49;;;;;;;;;8.50;6.00;;;;;24.35;24.76;101418.04;112098;1263;18587;-39
2023/06/12 10:54:17;;;;;;;;;10.00;9.00;;;;;24.48;24.76;101401.70;112199;1248;21437;-40
2023/06/12 10:56:44;;;;;;;;;8.50;8.50;;;;;24.67;24.61;101396.64;112076;1263;20890;-42
2023/06/12 10:59:12;;;;;;;;;10.00;9.00;;;;;24.75;24.75;101395.42;112187;1263;21130;-39
2023/06/12 11:01:39;;;;;;;;;6.00;6.00;;;;;24.53;23.93;101397.84;112067;1263;20012;-40
2023/06/12 11:04:07;;;;;;;;;8.00;8.00;;;;;24.21;23.51;101391.02;112181;1247;20762;-40
2023/06/12 11:06:34;;;;;;;;;5.00;5.00;;;;;24.29;23.46;101391.57;112092;1247;19986;-40
2023/06/12 11:09:02;;;;;;;;;6.00;6.00;;;;;24.38;23.49;101391.29;112208;1263;19981;-39
2023/06/12 11:11:30;;;;;;;;;8.00;6.00;;;;;24.39;23.55;101391.17;112109;1247;20683;-39